sensor_id;sensor_type;location;lat;lon;timestamp;P1;durP1;ratioP1;P2;durP2;ratioP2
72493;SDS011;60520;49.182;-0.348;2023-04-30T00:02:10;4.82;;;3.20;;
72493;SDS011;60520;49.182;-0.348;2023-04-30T00:04:38;4.05;;;3.15;;
72493;SDS011;60520;49.182;-0.348;2023-04-30T00:07:05;4.28;;;3.00;;
72493;SDS011;60520;49.182;-0.348;2023-04-30T00:09:33;5.10;;;3.58;;
72493;SDS011;60520;49.182;-0.348;2023-04-30T00:12:00;4.47;;;2.90;;
72493;SDS011;60520;49.182;-0.348;2023-04-30T00:14:27;3.92;;;3.00;;
72493;SDS011;60520;49.182;-0.348;2023-04-30T00:16:54;4.90;;;3.53;;
72493;SDS011;60520;49.182;-0.348;2023-04-30T00:19:22;3.08;;;2.72;;
72493;SDS011;60520;49.182;-0.348;2023-04-30T00:21:50;3.00;;;2.47;;
72493;SDS011;60520;49.182;-0.348;2023-04-30T00:24:17;4.10;;;2.97;;
72493;SDS011;60520;49.182;-0.348;2023-04-30T00:26:44;4.68;;;3.08;;
72493;SDS011;60520;49.182;-0.348;2023-04-30T00:29:12;3.40;;;2.90;;
72493;SDS011;60520;49.182;-0.348;2023-04-30T00:31:39;4.53;;;3.20;;
72493;SDS011;60520;49.182;-0.348;2023-04-30T00:34:06;4.25;;;2.72;;
72493;SDS011;60520;49.182;-0.348;2023-04-30T00:36:33;3.97;;;2.80;;
72493;SDS011;60520;49.182;-0.348;2023-04-30T00:39:02;3.78;;;2.92;;
72493;SDS011;60520;49.182;-0.348;2023-04-30T00:41:29;3.38;;;2.80;;
72493;SDS011;60520;49.182;-0.348;2023-04-30T00:43:57;4.03;;;2.83;;
72493;SDS011;60520;49.182;-0.348;2023-04-30T00:46:26;3.38;;;2.58;;
72493;SDS011;60520;49.182;-0.348;2023-04-30T00:48:53;3.25;;;2.80;;
72493;SDS011;60520;49.182;-0.348;2023-04-30T00:51:20;3.20;;;2.90;;
72493;SDS011;60520;49.182;-0.348;2023-04-30T00:53:47;3.40;;;2.85;;
72493;SDS011;60520;49.182;-0.348;2023-04-30T00:56:17;3.83;;;2.83;;
72493;SDS011;60520;49.182;-0.348;2023-04-30T00:58:45;4.72;;;3.17;;
72493;SDS011;60520;49.182;-0.348;2023-04-30T01:01:12;4.13;;;3.08;;
72493;SDS011;60520;49.182;-0.348;2023-04-30T01:03:39;3.08;;;2.70;;
72493;SDS011;60520;49.182;-0.348;2023-04-30T01:06:08;3.78;;;2.70;;
72493;SDS011;60520;49.182;-0.348;2023-04-30T01:08:35;3.97;;;3.03;;
72493;SDS011;60520;49.182;-0.348;2023-04-30T01:11:06;4.25;;;2.90;;
72493;SDS011;60520;49.182;-0.348;2023-04-30T01:13:39;3.00;;;2.60;;
72493;SDS011;60520;49.182;-0.348;2023-04-30T01:16:09;3.58;;;2.78;;
72493;SDS011;60520;49.182;-0.348;2023-04-30T01:18:40;4.30;;;2.80;;
72493;SDS011;60520;49.182;-0.348;2023-04-30T01:21:08;3.10;;;2.72;;
72493;SDS011;60520;49.182;-0.348;2023-04-30T01:23:40;4.88;;;2.80;;
72493;SDS011;60520;49.182;-0.348;2023-04-30T01:26:12;2.80;;;2.45;;
72493;SDS011;60520;49.182;-0.348;2023-04-30T01:28:42;3.50;;;2.78;;
72493;SDS011;60520;49.182;-0.348;2023-04-30T01:31:11;3.92;;;2.60;;
72493;SDS011;60520;49.182;-0.348;2023-04-30T01:33:38;3.83;;;2.63;;
72493;SDS011;60520;49.182;-0.348;2023-04-30T01:36:15;3.97;;;3.10;;
72493;SDS011;60520;49.182;-0.348;2023-04-30T01:38:49;3.42;;;2.72;;
72493;SDS011;60520;49.182;-0.348;2023-04-30T01:41:25;3.42;;;2.90;;
72493;SDS011;60520;49.182;-0.348;2023-04-30T01:43:57;3.15;;;2.60;;
72493;SDS011;60520;49.182;-0.348;2023-04-30T01:46:27;2.80;;;2.38;;
72493;SDS011;60520;49.182;-0.348;2023-04-30T01:48:58;3.80;;;2.92;;
72493;SDS011;60520;49.182;-0.348;2023-04-30T01:51:29;3.20;;;2.63;;
72493;SDS011;60520;49.182;-0.348;2023-04-30T01:54:01;4.10;;;2.90;;
72493;SDS011;60520;49.182;-0.348;2023-04-30T01:56:30;3.00;;;2.33;;
72493;SDS011;60520;49.182;-0.348;2023-04-30T01:59:01;3.80;;;2.80;;
72493;SDS011;60520;49.182;-0.348;2023-04-30T02:01:29;3.88;;;2.88;;
72493;SDS011;60520;49.182;-0.348;2023-04-30T02:03:56;3.08;;;2.78;;
72493;SDS011;60520;49.182;-0.348;2023-04-30T02:06:24;3.47;;;2.60;;
72493;SDS011;60520;49.182;-0.348;2023-04-30T02:08:52;3.60;;;2.92;;
72493;SDS011;60520;49.182;-0.348;2023-04-30T02:11:19;3.50;;;2.75;;
72493;SDS011;60520;49.182;-0.348;2023-04-30T02:13:48;4.35;;;2.75;;
72493;SDS011;60520;49.182;-0.348;2023-04-30T02:16:16;3.47;;;2.88;;
72493;SDS011;60520;49.182;-0.348;2023-04-30T02:18:44;3.40;;;2.70;;
72493;SDS011;60520;49.182;-0.348;2023-04-30T02:21:11;3.50;;;2.67;;
72493;SDS011;60520;49.182;-0.348;2023-04-30T02:23:38;3.67;;;2.65;;
72493;SDS011;60520;49.182;-0.348;2023-04-30T02:26:06;3.97;;;2.55;;
72493;SDS011;60520;49.182;-0.348;2023-04-30T02:28:33;3.72;;;2.72;;
72493;SDS011;60520;49.182;-0.348;2023-04-30T02:31:00;4.68;;;2.50;;
72493;SDS011;60520;49.182;-0.348;2023-04-30T02:33:28;2.95;;;2.60;;
72493;SDS011;60520;49.182;-0.348;2023-04-30T02:35:57;3.25;;;2.50;;
72493;SDS011;60520;49.182;-0.348;2023-04-30T02:38:24;3.60;;;2.70;;
72493;SDS011;60520;49.182;-0.348;2023-04-30T02:40:51;3.20;;;2.67;;
72493;SDS011;60520;49.182;-0.348;2023-04-30T02:43:18;3.38;;;2.80;;
72493;SDS011;60520;49.182;-0.348;2023-04-30T02:45:45;3.33;;;2.75;;
72493;SDS011;60520;49.182;-0.348;2023-04-30T02:48:12;4.32;;;3.03;;
72493;SDS011;60520;49.182;-0.348;2023-04-30T02:50:41;3.28;;;2.40;;
72493;SDS011;60520;49.182;-0.348;2023-04-30T02:53:08;3.67;;;2.97;;
72493;SDS011;60520;49.182;-0.348;2023-04-30T02:55:35;3.58;;;2.60;;
72493;SDS011;60520;49.182;-0.348;2023-04-30T02:58:02;3.17;;;2.38;;
72493;SDS011;60520;49.182;-0.348;2023-04-30T03:00:29;3.92;;;2.80;;
72493;SDS011;60520;49.182;-0.348;2023-04-30T03:02:56;3.13;;;2.78;;
72493;SDS011;60520;49.182;-0.348;2023-04-30T03:05:23;3.08;;;2.60;;
72493;SDS011;60520;49.182;-0.348;2023-04-30T03:07:52;3.42;;;2.83;;
72493;SDS011;60520;49.182;-0.348;2023-04-30T03:10:20;3.15;;;2.60;;
72493;SDS011;60520;49.182;-0.348;2023-04-30T03:12:47;3.47;;;2.60;;
72493;SDS011;60520;49.182;-0.348;2023-04-30T03:15:14;4.20;;;2.50;;
72493;SDS011;60520;49.182;-0.348;2023-04-30T03:17:41;4.03;;;2.70;;
72493;SDS011;60520;49.182;-0.348;2023-04-30T03:20:09;3.72;;;2.53;;
72493;SDS011;60520;49.182;-0.348;2023-04-30T03:22:37;2.90;;;2.50;;
72493;SDS011;60520;49.182;-0.348;2023-04-30T03:25:07;3.72;;;2.72;;
72493;SDS011;60520;49.182;-0.348;2023-04-30T03:27:34;3.22;;;2.60;;
72493;SDS011;60520;49.182;-0.348;2023-04-30T03:30:01;3.80;;;2.55;;
72493;SDS011;60520;49.182;-0.348;2023-04-30T03:32:28;3.22;;;2.47;;
72493;SDS011;60520;49.182;-0.348;2023-04-30T03:34:55;3.08;;;2.72;;
72493;SDS011;60520;49.182;-0.348;2023-04-30T03:37:22;3.03;;;2.47;;
72493;SDS011;60520;49.182;-0.348;2023-04-30T03:39:49;2.88;;;2.53;;
72493;SDS011;60520;49.182;-0.348;2023-04-30T03:42:18;3.03;;;2.45;;
72493;SDS011;60520;49.182;-0.348;2023-04-30T03:44:45;4.13;;;2.80;;
72493;SDS011;60520;49.182;-0.348;2023-04-30T03:47:12;3.80;;;2.80;;
72493;SDS011;60520;49.182;-0.348;2023-04-30T03:49:39;3.67;;;2.47;;
72493;SDS011;60520;49.182;-0.348;2023-04-30T03:52:06;2.90;;;2.45;;
72493;SDS011;60520;49.182;-0.348;2023-04-30T03:54:34;3.35;;;2.60;;
72493;SDS011;60520;49.182;-0.348;2023-04-30T03:57:01;4.00;;;2.83;;
72493;SDS011;60520;49.182;-0.348;2023-04-30T03:59:30;3.70;;;2.58;;
72493;SDS011;60520;49.182;-0.348;2023-04-30T04:01:57;2.65;;;2.20;;
72493;SDS011;60520;49.182;-0.348;2023-04-30T04:04:26;4.55;;;3.00;;
72493;SDS011;60520;49.182;-0.348;2023-04-30T04:06:53;2.30;;;2.10;;
72493;SDS011;60520;49.182;-0.348;2023-04-30T04:09:20;3.20;;;2.60;;
72493;SDS011;60520;49.182;-0.348;2023-04-30T04:11:47;4.55;;;2.75;;
72493;SDS011;60520;49.182;-0.348;2023-04-30T04:14:14;3.08;;;2.60;;
72493;SDS011;60520;49.182;-0.348;2023-04-30T04:16:43;3.25;;;2.47;;
72493;SDS011;60520;49.182;-0.348;2023-04-30T04:19:10;2.88;;;2.45;;
72493;SDS011;60520;49.182;-0.348;2023-04-30T04:21:37;7.18;;;2.50;;
72493;SDS011;60520;49.182;-0.348;2023-04-30T04:24:05;3.15;;;2.60;;
72493;SDS011;60520;49.182;-0.348;2023-04-30T04:26:33;3.03;;;2.50;;
72493;SDS011;60520;49.182;-0.348;2023-04-30T04:29:00;3.42;;;2.35;;
72493;SDS011;60520;49.182;-0.348;2023-04-30T04:31:28;4.00;;;2.65;;
72493;SDS011;60520;49.182;-0.348;2023-04-30T04:33:57;2.85;;;2.38;;
72493;SDS011;60520;49.182;-0.348;2023-04-30T04:36:25;3.35;;;2.30;;
72493;SDS011;60520;49.182;-0.348;2023-04-30T04:38:52;2.70;;;2.35;;
72493;SDS011;60520;49.182;-0.348;2023-04-30T04:41:19;3.58;;;2.60;;
72493;SDS011;60520;49.182;-0.348;2023-04-30T04:43:47;3.13;;;2.58;;
72493;SDS011;60520;49.182;-0.348;2023-04-30T04:46:14;3.42;;;2.70;;
72493;SDS011;60520;49.182;-0.348;2023-04-30T04:48:41;3.90;;;2.75;;
72493;SDS011;60520;49.182;-0.348;2023-04-30T04:51:10;2.85;;;2.40;;
72493;SDS011;60520;49.182;-0.348;2023-04-30T04:53:37;4.22;;;2.75;;
72493;SDS011;60520;49.182;-0.348;2023-04-30T04:56:05;2.95;;;2.50;;
72493;SDS011;60520;49.182;-0.348;2023-04-30T04:58:32;3.58;;;2.60;;
72493;SDS011;60520;49.182;-0.348;2023-04-30T05:00:59;3.00;;;2.65;;
72493;SDS011;60520;49.182;-0.348;2023-04-30T05:03:29;3.00;;;2.55;;
72493;SDS011;60520;49.182;-0.348;2023-04-30T05:05:56;4.10;;;2.50;;
72493;SDS011;60520;49.182;-0.348;2023-04-30T05:08:24;3.05;;;2.58;;
72493;SDS011;60520;49.182;-0.348;2023-04-30T05:10:51;3.28;;;2.60;;
72493;SDS011;60520;49.182;-0.348;2023-04-30T05:13:19;2.95;;;2.40;;
72493;SDS011;60520;49.182;-0.348;2023-04-30T05:15:46;2.88;;;2.30;;
72493;SDS011;60520;49.182;-0.348;2023-04-30T05:18:13;3.47;;;2.35;;
72493;SDS011;60520;49.182;-0.348;2023-04-30T05:20:40;3.13;;;2.47;;
72493;SDS011;60520;49.182;-0.348;2023-04-30T05:23:07;2.97;;;2.40;;
72493;SDS011;60520;49.182;-0.348;2023-04-30T05:25:36;2.85;;;2.40;;
72493;SDS011;60520;49.182;-0.348;2023-04-30T05:28:03;3.47;;;2.63;;
72493;SDS011;60520;49.182;-0.348;2023-04-30T05:30:31;3.70;;;2.75;;
72493;SDS011;60520;49.182;-0.348;2023-04-30T05:32:58;3.20;;;2.33;;
72493;SDS011;60520;49.182;-0.348;2023-04-30T05:35:25;3.03;;;2.55;;
72493;SDS011;60520;49.182;-0.348;2023-04-30T05:37:52;2.85;;;2.55;;
72493;SDS011;60520;49.182;-0.348;2023-04-30T05:40:19;2.72;;;2.28;;
72493;SDS011;60520;49.182;-0.348;2023-04-30T05:42:48;2.55;;;2.22;;
72493;SDS011;60520;49.182;-0.348;2023-04-30T05:45:15;4.25;;;2.80;;
72493;SDS011;60520;49.182;-0.348;2023-04-30T05:47:42;3.63;;;2.38;;
72493;SDS011;60520;49.182;-0.348;2023-04-30T05:50:09;2.55;;;2.15;;
72493;SDS011;60520;49.182;-0.348;2023-04-30T05:52:36;3.10;;;2.45;;
72493;SDS011;60520;49.182;-0.348;2023-04-30T05:55:04;2.53;;;2.30;;
72493;SDS011;60520;49.182;-0.348;2023-04-30T05:57:31;3.17;;;2.60;;
72493;SDS011;60520;49.182;-0.348;2023-04-30T06:00:00;2.65;;;2.28;;
72493;SDS011;60520;49.182;-0.348;2023-04-30T06:02:30;2.60;;;2.40;;
72493;SDS011;60520;49.182;-0.348;2023-04-30T06:04:57;2.72;;;2.42;;
72493;SDS011;60520;49.182;-0.348;2023-04-30T06:07:26;2.60;;;2.20;;
72493;SDS011;60520;49.182;-0.348;2023-04-30T06:09:53;2.95;;;2.50;;
72493;SDS011;60520;49.182;-0.348;2023-04-30T06:12:20;2.95;;;2.45;;
72493;SDS011;60520;49.182;-0.348;2023-04-30T06:14:47;3.03;;;2.42;;
72493;SDS011;60520;49.182;-0.348;2023-04-30T06:17:15;3.05;;;2.47;;
72493;SDS011;60520;49.182;-0.348;2023-04-30T06:19:43;2.70;;;2.20;;
72493;SDS011;60520;49.182;-0.348;2023-04-30T06:22:10;2.75;;;2.40;;
72493;SDS011;60520;49.182;-0.348;2023-04-30T06:24:37;2.80;;;2.50;;
72493;SDS011;60520;49.182;-0.348;2023-04-30T06:27:04;2.50;;;2.30;;
72493;SDS011;60520;49.182;-0.348;2023-04-30T06:29:31;2.88;;;2.28;;
72493;SDS011;60520;49.182;-0.348;2023-04-30T06:31:58;2.80;;;2.50;;
72493;SDS011;60520;49.182;-0.348;2023-04-30T06:34:27;3.03;;;2.40;;
72493;SDS011;60520;49.182;-0.348;2023-04-30T06:36:55;2.97;;;2.45;;
72493;SDS011;60520;49.182;-0.348;2023-04-30T06:39:22;3.05;;;2.30;;
72493;SDS011;60520;49.182;-0.348;2023-04-30T06:41:49;3.05;;;2.38;;
72493;SDS011;60520;49.182;-0.348;2023-04-30T06:44:16;3.35;;;2.63;;
72493;SDS011;60520;49.182;-0.348;2023-04-30T06:46:43;3.70;;;2.33;;
72493;SDS011;60520;49.182;-0.348;2023-04-30T06:49:10;2.80;;;2.30;;
72493;SDS011;60520;49.182;-0.348;2023-04-30T06:51:40;2.83;;;2.30;;
72493;SDS011;60520;49.182;-0.348;2023-04-30T06:54:07;2.53;;;2.30;;
72493;SDS011;60520;49.182;-0.348;2023-04-30T06:56:35;3.25;;;2.40;;
72493;SDS011;60520;49.182;-0.348;2023-04-30T06:59:02;3.72;;;2.00;;
72493;SDS011;60520;49.182;-0.348;2023-04-30T07:01:29;3.33;;;2.53;;
72493;SDS011;60520;49.182;-0.348;2023-04-30T07:03:56;2.67;;;2.10;;
72493;SDS011;60520;49.182;-0.348;2023-04-30T07:06:24;2.50;;;2.30;;
72493;SDS011;60520;49.182;-0.348;2023-04-30T07:08:52;2.38;;;2.00;;
72493;SDS011;60520;49.182;-0.348;2023-04-30T07:11:19;2.97;;;2.30;;
72493;SDS011;60520;49.182;-0.348;2023-04-30T07:13:47;2.70;;;2.50;;
72493;SDS011;60520;49.182;-0.348;2023-04-30T07:16:14;3.10;;;2.28;;
72493;SDS011;60520;49.182;-0.348;2023-04-30T07:18:41;3.13;;;2.63;;
72493;SDS011;60520;49.182;-0.348;2023-04-30T07:21:12;3.58;;;2.45;;
72493;SDS011;60520;49.182;-0.348;2023-04-30T07:23:39;3.40;;;2.53;;
72493;SDS011;60520;49.182;-0.348;2023-04-30T07:26:09;2.72;;;2.10;;
72493;SDS011;60520;49.182;-0.348;2023-04-30T07:28:36;3.17;;;2.20;;
72493;SDS011;60520;49.182;-0.348;2023-04-30T07:31:03;3.08;;;2.40;;
72493;SDS011;60520;49.182;-0.348;2023-04-30T07:33:31;2.88;;;2.42;;
72493;SDS011;60520;49.182;-0.348;2023-04-30T07:35:58;4.03;;;2.40;;
72493;SDS011;60520;49.182;-0.348;2023-04-30T07:38:25;3.47;;;2.30;;
72493;SDS011;60520;49.182;-0.348;2023-04-30T07:40:53;3.63;;;2.45;;
72493;SDS011;60520;49.182;-0.348;2023-04-30T07:43:21;2.53;;;2.25;;
72493;SDS011;60520;49.182;-0.348;2023-04-30T07:45:49;2.72;;;2.20;;
72493;SDS011;60520;49.182;-0.348;2023-04-30T07:48:18;2.60;;;2.20;;
72493;SDS011;60520;49.182;-0.348;2023-04-30T07:50:46;2.42;;;2.22;;
72493;SDS011;60520;49.182;-0.348;2023-04-30T07:53:13;2.58;;;2.33;;
72493;SDS011;60520;49.182;-0.348;2023-04-30T07:55:40;2.55;;;2.10;;
72493;SDS011;60520;49.182;-0.348;2023-04-30T07:58:07;2.33;;;1.92;;
72493;SDS011;60520;49.182;-0.348;2023-04-30T08:00:36;3.35;;;2.20;;
72493;SDS011;60520;49.182;-0.348;2023-04-30T08:03:03;2.88;;;2.20;;
72493;SDS011;60520;49.182;-0.348;2023-04-30T08:05:30;2.75;;;2.42;;
72493;SDS011;60520;49.182;-0.348;2023-04-30T08:07:57;2.95;;;2.20;;
72493;SDS011;60520;49.182;-0.348;2023-04-30T08:10:24;2.22;;;2.00;;
72493;SDS011;60520;49.182;-0.348;2023-04-30T08:12:52;3.10;;;2.50;;
72493;SDS011;60520;49.182;-0.348;2023-04-30T08:15:19;3.55;;;2.40;;
72493;SDS011;60520;49.182;-0.348;2023-04-30T08:17:48;2.95;;;2.40;;
72493;SDS011;60520;49.182;-0.348;2023-04-30T08:20:16;2.88;;;2.30;;
72493;SDS011;60520;49.182;-0.348;2023-04-30T08:22:43;2.30;;;2.10;;
72493;SDS011;60520;49.182;-0.348;2023-04-30T08:25:11;3.00;;;2.17;;
72493;SDS011;60520;49.182;-0.348;2023-04-30T08:27:38;3.17;;;2.28;;
72493;SDS011;60520;49.182;-0.348;2023-04-30T08:30:06;2.53;;;2.10;;
72493;SDS011;60520;49.182;-0.348;2023-04-30T08:32:33;3.47;;;2.10;;
72493;SDS011;60520;49.182;-0.348;2023-04-30T08:35:02;2.60;;;2.30;;
72493;SDS011;60520;49.182;-0.348;2023-04-30T08:37:29;2.33;;;2.13;;
72493;SDS011;60520;49.182;-0.348;2023-04-30T08:39:56;2.17;;;1.98;;
72493;SDS011;60520;49.182;-0.348;2023-04-30T08:42:24;2.60;;;2.40;;
72493;SDS011;60520;49.182;-0.348;2023-04-30T08:44:52;3.30;;;2.50;;
72493;SDS011;60520;49.182;-0.348;2023-04-30T08:47:19;3.83;;;2.28;;
72493;SDS011;60520;49.182;-0.348;2023-04-30T08:49:46;2.50;;;2.10;;
72493;SDS011;60520;49.182;-0.348;2023-04-30T08:52:15;2.85;;;2.35;;
72493;SDS011;60520;49.182;-0.348;2023-04-30T08:54:42;2.67;;;2.40;;
72493;SDS011;60520;49.182;-0.348;2023-04-30T08:57:10;2.83;;;2.38;;
72493;SDS011;60520;49.182;-0.348;2023-04-30T08:59:37;2.72;;;2.10;;
72493;SDS011;60520;49.182;-0.348;2023-04-30T09:02:04;2.40;;;2.13;;
72493;SDS011;60520;49.182;-0.348;2023-04-30T09:04:31;3.45;;;2.30;;
72493;SDS011;60520;49.182;-0.348;2023-04-30T09:06:59;3.00;;;2.20;;
72493;SDS011;60520;49.182;-0.348;2023-04-30T09:09:29;2.88;;;2.22;;
72493;SDS011;60520;49.182;-0.348;2023-04-30T09:12:09;2.80;;;2.35;;
72493;SDS011;60520;49.182;-0.348;2023-04-30T09:14:37;2.20;;;2.00;;
72493;SDS011;60520;49.182;-0.348;2023-04-30T09:17:04;2.47;;;2.10;;
72493;SDS011;60520;49.182;-0.348;2023-04-30T09:19:32;2.97;;;2.40;;
72493;SDS011;60520;49.182;-0.348;2023-04-30T09:22:11;2.30;;;2.10;;
72493;SDS011;60520;49.182;-0.348;2023-04-30T09:24:45;2.25;;;1.90;;
72493;SDS011;60520;49.182;-0.348;2023-04-30T09:27:15;3.15;;;2.60;;
72493;SDS011;60520;49.182;-0.348;2023-04-30T09:29:42;2.60;;;2.10;;
72493;SDS011;60520;49.182;-0.348;2023-04-30T09:32:10;2.35;;;2.10;;
72493;SDS011;60520;49.182;-0.348;2023-04-30T09:34:37;2.75;;;2.20;;
72493;SDS011;60520;49.182;-0.348;2023-04-30T09:37:05;2.38;;;2.17;;
72493;SDS011;60520;49.182;-0.348;2023-04-30T09:39:32;2.80;;;2.30;;
72493;SDS011;60520;49.182;-0.348;2023-04-30T09:42:07;2.67;;;2.13;;
72493;SDS011;60520;49.182;-0.348;2023-04-30T09:44:35;2.95;;;2.47;;
72493;SDS011;60520;49.182;-0.348;2023-04-30T09:47:03;2.60;;;2.20;;
72493;SDS011;60520;49.182;-0.348;2023-04-30T09:49:30;3.22;;;2.30;;
72493;SDS011;60520;49.182;-0.348;2023-04-30T09:51:57;2.55;;;2.10;;
72493;SDS011;60520;49.182;-0.348;2023-04-30T09:54:25;2.58;;;2.38;;
72493;SDS011;60520;49.182;-0.348;2023-04-30T09:56:53;2.38;;;2.17;;
72493;SDS011;60520;49.182;-0.348;2023-04-30T09:59:21;2.28;;;1.95;;
72493;SDS011;60520;49.182;-0.348;2023-04-30T10:01:49;2.55;;;2.15;;
72493;SDS011;60520;49.182;-0.348;2023-04-30T10:04:17;2.42;;;2.17;;
72493;SDS011;60520;49.182;-0.348;2023-04-30T10:06:44;2.33;;;2.00;;
72493;SDS011;60520;49.182;-0.348;2023-04-30T10:09:12;2.60;;;2.25;;
72493;SDS011;60520;49.182;-0.348;2023-04-30T10:11:40;2.88;;;2.33;;
72493;SDS011;60520;49.182;-0.348;2023-04-30T10:14:09;4.70;;;2.38;;
72493;SDS011;60520;49.182;-0.348;2023-04-30T10:16:42;2.42;;;2.15;;
72493;SDS011;60520;49.182;-0.348;2023-04-30T10:19:11;2.90;;;2.15;;
72493;SDS011;60520;49.182;-0.348;2023-04-30T10:21:40;3.33;;;2.30;;
72493;SDS011;60520;49.182;-0.348;2023-04-30T10:24:08;3.67;;;2.15;;
72493;SDS011;60520;49.182;-0.348;2023-04-30T10:26:36;2.55;;;2.00;;
72493;SDS011;60520;49.182;-0.348;2023-04-30T10:29:04;2.30;;;2.00;;
72493;SDS011;60520;49.182;-0.348;2023-04-30T10:31:31;2.28;;;1.90;;
72493;SDS011;60520;49.182;-0.348;2023-04-30T10:34:02;2.40;;;2.20;;
72493;SDS011;60520;49.182;-0.348;2023-04-30T10:36:32;2.63;;;2.22;;
72493;SDS011;60520;49.182;-0.348;2023-04-30T10:39:05;2.40;;;2.20;;
72493;SDS011;60520;49.182;-0.348;2023-04-30T10:41:32;2.55;;;2.33;;
72493;SDS011;60520;49.182;-0.348;2023-04-30T10:44:00;2.60;;;2.00;;
72493;SDS011;60520;49.182;-0.348;2023-04-30T10:46:29;2.65;;;2.17;;
72493;SDS011;60520;49.182;-0.348;2023-04-30T10:48:56;2.42;;;2.22;;
72493;SDS011;60520;49.182;-0.348;2023-04-30T10:51:25;2.35;;;2.10;;
72493;SDS011;60520;49.182;-0.348;2023-04-30T10:54:10;2.72;;;2.15;;
72493;SDS011;60520;49.182;-0.348;2023-04-30T10:56:37;2.00;;;1.80;;
72493;SDS011;60520;49.182;-0.348;2023-04-30T10:59:04;2.30;;;2.10;;
72493;SDS011;60520;49.182;-0.348;2023-04-30T11:01:32;2.28;;;2.00;;
72493;SDS011;60520;49.182;-0.348;2023-04-30T11:04:19;2.55;;;1.98;;
72493;SDS011;60520;49.182;-0.348;2023-04-30T11:06:54;2.97;;;2.25;;
72493;SDS011;60520;49.182;-0.348;2023-04-30T11:09:33;2.30;;;2.10;;
72493;SDS011;60520;49.182;-0.348;2023-04-30T11:12:01;2.60;;;2.13;;
72493;SDS011;60520;49.182;-0.348;2023-04-30T11:14:30;2.47;;;2.28;;
72493;SDS011;60520;49.182;-0.348;2023-04-30T11:16:58;2.15;;;1.90;;
72493;SDS011;60520;49.182;-0.348;2023-04-30T11:19:26;2.22;;;2.00;;
72493;SDS011;60520;49.182;-0.348;2023-04-30T11:24:49;2.67;;;2.38;;
72493;SDS011;60520;49.182;-0.348;2023-04-30T11:27:18;2.00;;;1.80;;
72493;SDS011;60520;49.182;-0.348;2023-04-30T11:29:46;2.83;;;2.28;;
72493;SDS011;60520;49.182;-0.348;2023-04-30T11:32:13;2.30;;;2.05;;
72493;SDS011;60520;49.182;-0.348;2023-04-30T11:34:42;2.20;;;2.00;;
72493;SDS011;60520;49.182;-0.348;2023-04-30T11:37:10;2.25;;;1.92;;
72493;SDS011;60520;49.182;-0.348;2023-04-30T11:39:38;2.67;;;1.90;;
72493;SDS011;60520;49.182;-0.348;2023-04-30T11:42:07;2.20;;;1.77;;
72493;SDS011;60520;49.182;-0.348;2023-04-30T11:44:34;2.53;;;2.10;;
72493;SDS011;60520;49.182;-0.348;2023-04-30T11:47:02;2.22;;;1.95;;
72493;SDS011;60520;49.182;-0.348;2023-04-30T11:49:30;2.70;;;2.20;;
72493;SDS011;60520;49.182;-0.348;2023-04-30T11:51:57;2.78;;;2.00;;
72493;SDS011;60520;49.182;-0.348;2023-04-30T11:54:24;2.65;;;2.08;;
72493;SDS011;60520;49.182;-0.348;2023-04-30T11:56:52;2.45;;;2.25;;
72493;SDS011;60520;49.182;-0.348;2023-04-30T11:59:26;2.28;;;2.00;;
72493;SDS011;60520;49.182;-0.348;2023-04-30T12:01:53;2.20;;;1.85;;
72493;SDS011;60520;49.182;-0.348;2023-04-30T12:04:20;2.85;;;2.00;;
72493;SDS011;60520;49.182;-0.348;2023-04-30T12:06:47;2.20;;;1.90;;
72493;SDS011;60520;49.182;-0.348;2023-04-30T12:09:15;2.33;;;2.13;;
72493;SDS011;60520;49.182;-0.348;2023-04-30T12:11:42;2.00;;;1.80;;
72493;SDS011;60520;49.182;-0.348;2023-04-30T12:14:10;2.05;;;1.85;;
72493;SDS011;60520;49.182;-0.348;2023-04-30T12:16:41;2.40;;;1.92;;
72493;SDS011;60520;49.182;-0.348;2023-04-30T12:19:09;2.10;;;1.83;;
72493;SDS011;60520;49.182;-0.348;2023-04-30T12:21:36;2.55;;;2.30;;
72493;SDS011;60520;49.182;-0.348;2023-04-30T12:24:04;2.28;;;2.08;;
72493;SDS011;60520;49.182;-0.348;2023-04-30T12:26:35;3.03;;;2.28;;
72493;SDS011;60520;49.182;-0.348;2023-04-30T12:29:03;2.22;;;2.03;;
72493;SDS011;60520;49.182;-0.348;2023-04-30T12:31:31;2.15;;;1.90;;
72493;SDS011;60520;49.182;-0.348;2023-04-30T12:34:03;2.92;;;2.17;;
72493;SDS011;60520;49.182;-0.348;2023-04-30T12:36:31;2.30;;;2.10;;
72493;SDS011;60520;49.182;-0.348;2023-04-30T12:39:01;2.75;;;2.17;;
72493;SDS011;60520;49.182;-0.348;2023-04-30T12:41:29;2.17;;;1.90;;
72493;SDS011;60520;49.182;-0.348;2023-04-30T12:46:39;2.00;;;1.80;;
72493;SDS011;60520;49.182;-0.348;2023-04-30T12:49:07;2.22;;;1.90;;
72493;SDS011;60520;49.182;-0.348;2023-04-30T12:51:36;2.70;;;2.28;;
72493;SDS011;60520;49.182;-0.348;2023-04-30T12:54:04;2.70;;;2.30;;
72493;SDS011;60520;49.182;-0.348;2023-04-30T12:56:31;2.55;;;2.08;;
72493;SDS011;60520;49.182;-0.348;2023-04-30T12:58:59;3.08;;;2.00;;
72493;SDS011;60520;49.182;-0.348;2023-04-30T13:01:26;2.58;;;1.95;;
72493;SDS011;60520;49.182;-0.348;2023-04-30T13:03:53;2.17;;;1.90;;
72493;SDS011;60520;49.182;-0.348;2023-04-30T13:06:22;2.03;;;1.83;;
72493;SDS011;60520;49.182;-0.348;2023-04-30T13:08:49;2.78;;;2.10;;
72493;SDS011;60520;49.182;-0.348;2023-04-30T13:11:16;2.38;;;2.10;;
72493;SDS011;60520;49.182;-0.348;2023-04-30T13:13:44;2.45;;;2.10;;
72493;SDS011;60520;49.182;-0.348;2023-04-30T13:16:11;1.92;;;1.73;;
72493;SDS011;60520;49.182;-0.348;2023-04-30T13:18:38;2.85;;;2.00;;
72493;SDS011;60520;49.182;-0.348;2023-04-30T13:21:05;2.55;;;2.25;;
72493;SDS011;60520;49.182;-0.348;2023-04-30T13:23:33;2.67;;;1.88;;
72493;SDS011;60520;49.182;-0.348;2023-04-30T13:26:01;2.13;;;1.90;;
72493;SDS011;60520;49.182;-0.348;2023-04-30T13:28:28;3.05;;;2.15;;
72493;SDS011;60520;49.182;-0.348;2023-04-30T13:30:55;2.58;;;2.15;;
72493;SDS011;60520;49.182;-0.348;2023-04-30T13:33:22;2.10;;;1.77;;
72493;SDS011;60520;49.182;-0.348;2023-04-30T13:35:49;2.35;;;2.05;;
72493;SDS011;60520;49.182;-0.348;2023-04-30T13:38:16;2.15;;;1.95;;
72493;SDS011;60520;49.182;-0.348;2023-04-30T13:40:45;2.63;;;1.90;;
72493;SDS011;60520;49.182;-0.348;2023-04-30T13:43:12;2.47;;;2.03;;
72493;SDS011;60520;49.182;-0.348;2023-04-30T13:45:39;1.95;;;1.77;;
72493;SDS011;60520;49.182;-0.348;2023-04-30T13:48:06;1.83;;;1.73;;
72493;SDS011;60520;49.182;-0.348;2023-04-30T13:50:33;3.10;;;2.10;;
72493;SDS011;60520;49.182;-0.348;2023-04-30T13:53:00;2.17;;;1.92;;
72493;SDS011;60520;49.182;-0.348;2023-04-30T13:55:28;2.00;;;1.80;;
72493;SDS011;60520;49.182;-0.348;2023-04-30T13:57:57;2.50;;;2.00;;
72493;SDS011;60520;49.182;-0.348;2023-04-30T14:00:24;2.03;;;1.80;;
72493;SDS011;60520;49.182;-0.348;2023-04-30T14:02:51;2.22;;;1.83;;
72493;SDS011;60520;49.182;-0.348;2023-04-30T14:05:18;2.38;;;2.03;;
72493;SDS011;60520;49.182;-0.348;2023-04-30T14:07:45;2.40;;;2.00;;
72493;SDS011;60520;49.182;-0.348;2023-04-30T14:10:12;2.00;;;1.80;;
72493;SDS011;60520;49.182;-0.348;2023-04-30T14:12:40;2.17;;;1.92;;
72493;SDS011;60520;49.182;-0.348;2023-04-30T14:15:08;2.08;;;1.88;;
72493;SDS011;60520;49.182;-0.348;2023-04-30T14:17:35;2.40;;;1.90;;
72493;SDS011;60520;49.182;-0.348;2023-04-30T14:20:03;2.40;;;2.20;;
72493;SDS011;60520;49.182;-0.348;2023-04-30T14:22:30;2.10;;;1.77;;
72493;SDS011;60520;49.182;-0.348;2023-04-30T14:24:58;2.55;;;1.92;;
72493;SDS011;60520;49.182;-0.348;2023-04-30T14:27:25;1.75;;;1.63;;
72493;SDS011;60520;49.182;-0.348;2023-04-30T14:29:52;2.50;;;1.92;;
72493;SDS011;60520;49.182;-0.348;2023-04-30T14:32:23;2.00;;;1.80;;
72493;SDS011;60520;49.182;-0.348;2023-04-30T14:34:50;2.28;;;2.08;;
72493;SDS011;60520;49.182;-0.348;2023-04-30T14:37:18;2.25;;;1.88;;
72493;SDS011;60520;49.182;-0.348;2023-04-30T14:39:45;2.13;;;1.67;;
72493;SDS011;60520;49.182;-0.348;2023-04-30T14:42:12;2.28;;;2.00;;
72493;SDS011;60520;49.182;-0.348;2023-04-30T14:44:39;2.10;;;1.88;;